sensor_id;sensor_type;location;lat;lon;timestamp;pressure;altitude;pressure_sealevel;temperature;humidity
76128;BME280;64873;50.102;14.434;2023-05-20T00:02:08;99983.72;;;10.69;78.96
76128;BME280;64873;50.102;14.434;2023-05-20T00:04:34;99983.72;;;10.76;78.77
76128;BME280;64873;50.102;14.434;2023-05-20T00:07:00;99989.91;;;10.76;78.95
76128;BME280;64873;50.102;14.434;2023-05-20T00:09:25;99976.56;;;10.83;78.83
76128;BME280;64873;50.102;14.434;2023-05-20T00:11:51;99970.56;;;10.74;78.86
76128;BME280;64873;50.102;14.434;2023-05-20T00:14:16;99967.25;;;10.65;79.16
76128;BME280;64873;50.102;14.434;2023-05-20T00:16:41;99979.41;;;10.68;78.93
76128;BME280;64873;50.102;14.434;2023-05-20T00:19:07;99978.97;;;10.71;79.16
76128;BME280;64873;50.102;14.434;2023-05-20T00:21:33;99975.84;;;10.61;79.48
76128;BME280;64873;50.102;14.434;2023-05-20T00:23:58;99989.69;;;10.71;79.16
76128;BME280;64873;50.102;14.434;2023-05-20T00:26:24;99983.47;;;10.64;79.24
76128;BME280;64873;50.102;14.434;2023-05-20T00:28:50;99984.09;;;10.66;79.39
76128;BME280;64873;50.102;14.434;2023-05-20T00:31:16;99988.84;;;10.71;79.17
76128;BME280;64873;50.102;14.434;2023-05-20T00:33:41;99993.59;;;10.68;79.27
76128;BME280;64873;50.102;14.434;2023-05-20T00:36:06;99991.72;;;10.69;79.42
76128;BME280;64873;50.102;14.434;2023-05-20T00:38:32;99974.44;;;10.65;79.18
76128;BME280;64873;50.102;14.434;2023-05-20T00:40:58;99978.03;;;10.85;78.66
76128;BME280;64873;50.102;14.434;2023-05-20T00:43:23;99981.69;;;10.84;78.74
76128;BME280;64873;50.102;14.434;2023-05-20T00:45:51;99987.69;;;10.86;78.68
76128;BME280;64873;50.102;14.434;2023-05-20T00:48:17;99986.44;;;10.82;78.55
76128;BME280;64873;50.102;14.434;2023-05-20T00:50:42;99971.88;;;10.91;78.28
76128;BME280;64873;50.102;14.434;2023-05-20T00:53:08;99982.91;;;10.75;78.97
76128;BME280;64873;50.102;14.434;2023-05-20T00:55:34;99984.16;;;10.79;78.78
76128;BME280;64873;50.102;14.434;2023-05-20T00:58:00;99981.09;;;10.89;78.35
76128;BME280;64873;50.102;14.434;2023-05-20T01:00:25;99977.00;;;10.86;78.50
76128;BME280;64873;50.102;14.434;2023-05-20T01:02:51;99977.22;;;10.91;78.44
76128;BME280;64873;50.102;14.434;2023-05-20T01:05:16;99964.44;;;10.87;78.36
76128;BME280;64873;50.102;14.434;2023-05-20T01:07:42;99968.13;;;10.79;78.72
76128;BME280;64873;50.102;14.434;2023-05-20T01:10:08;99958.44;;;10.78;78.78
76128;BME280;64873;50.102;14.434;2023-05-20T01:12:36;99968.97;;;10.86;78.12
76128;BME280;64873;50.102;14.434;2023-05-20T01:15:10;99963.41;;;10.81;78.69
76128;BME280;64873;50.102;14.434;2023-05-20T01:17:43;99950.81;;;10.68;78.89
76128;BME280;64873;50.102;14.434;2023-05-20T01:20:12;99944.44;;;10.70;79.19
76128;BME280;64873;50.102;14.434;2023-05-20T01:22:46;99946.91;;;10.71;79.09
76128;BME280;64873;50.102;14.434;2023-05-20T01:25:11;99944.88;;;10.73;78.88
76128;BME280;64873;50.102;14.434;2023-05-20T01:27:37;99945.69;;;10.74;79.04
76128;BME280;64873;50.102;14.434;2023-05-20T01:30:02;99935.59;;;10.69;79.13
76128;BME280;64873;50.102;14.434;2023-05-20T01:32:54;99938.50;;;10.74;79.10
76128;BME280;64873;50.102;14.434;2023-05-20T01:35:19;99941.81;;;10.83;78.98
76128;BME280;64873;50.102;14.434;2023-05-20T01:37:47;99943.84;;;10.74;79.11
76128;BME280;64873;50.102;14.434;2023-05-20T01:40:14;99930.66;;;10.66;79.07
76128;BME280;64873;50.102;14.434;2023-05-20T01:42:42;99939.72;;;10.78;78.80
76128;BME280;64873;50.102;14.434;2023-05-20T01:45:08;99930.25;;;10.62;79.29
76128;BME280;64873;50.102;14.434;2023-05-20T01:47:34;99937.63;;;10.67;79.64
76128;BME280;64873;50.102;14.434;2023-05-20T01:49:59;99937.25;;;10.70;79.35
76128;BME280;64873;50.102;14.434;2023-05-20T01:52:25;99926.94;;;10.67;79.46
76128;BME280;64873;50.102;14.434;2023-05-20T01:54:50;99922.84;;;10.71;79.32
76128;BME280;64873;50.102;14.434;2023-05-20T01:57:20;99929.22;;;10.70;79.57
76128;BME280;64873;50.102;14.434;2023-05-20T01:59:46;99936.84;;;10.73;79.34
76128;BME280;64873;50.102;14.434;2023-05-20T02:02:12;99920.59;;;10.68;79.62
76128;BME280;64873;50.102;14.434;2023-05-20T02:04:37;99926.16;;;10.73;79.57
76128;BME280;64873;50.102;14.434;2023-05-20T02:07:03;99925.72;;;10.63;79.67
76128;BME280;64873;50.102;14.434;2023-05-20T02:09:28;99931.91;;;10.70;79.34
76128;BME280;64873;50.102;14.434;2023-05-20T02:11:54;99938.06;;;10.71;79.71
76128;BME280;64873;50.102;14.434;2023-05-20T02:14:19;99923.88;;;10.63;79.52
76128;BME280;64873;50.102;14.434;2023-05-20T02:16:45;99934.78;;;10.68;79.48
76128;BME280;64873;50.102;14.434;2023-05-20T02:19:11;99931.53;;;10.80;79.24
76128;BME280;64873;50.102;14.434;2023-05-20T02:21:40;99937.03;;;10.65;79.76
76128;BME280;64873;50.102;14.434;2023-05-20T02:24:06;99937.63;;;10.60;79.81
76128;BME280;64873;50.102;14.434;2023-05-20T02:26:33;99947.84;;;10.44;80.47
76128;BME280;64873;50.102;14.434;2023-05-20T02:28:59;99944.16;;;10.45;80.45
76128;BME280;64873;50.102;14.434;2023-05-20T02:31:24;99943.28;;;10.37;80.82
76128;BME280;64873;50.102;14.434;2023-05-20T02:33:50;99936.75;;;10.47;80.40
76128;BME280;64873;50.102;14.434;2023-05-20T02:36:15;99939.59;;;10.32;80.83
76128;BME280;64873;50.102;14.434;2023-05-20T02:38:41;99949.47;;;10.38;81.08
76128;BME280;64873;50.102;14.434;2023-05-20T02:41:07;99921.53;;;10.40;80.48
76128;BME280;64873;50.102;14.434;2023-05-20T02:43:33;99917.22;;;10.46;80.59
76128;BME280;64873;50.102;14.434;2023-05-20T02:45:58;99916.41;;;10.46;80.64
76128;BME280;64873;50.102;14.434;2023-05-20T02:48:24;99912.09;;;10.45;80.61
76128;BME280;64873;50.102;14.434;2023-05-20T02:50:49;99911.22;;;10.37;80.80
76128;BME280;64873;50.102;14.434;2023-05-20T02:53:15;99916.16;;;10.34;81.03
76128;BME280;64873;50.102;14.434;2023-05-20T02:55:40;99916.19;;;10.40;81.06
76128;BME280;64873;50.102;14.434;2023-05-20T02:58:05;99922.75;;;10.38;80.99
76128;BME280;64873;50.102;14.434;2023-05-20T03:00:31;99930.94;;;10.36;81.33
76128;BME280;64873;50.102;14.434;2023-05-20T03:02:59;99912.88;;;10.38;81.29
76128;BME280;64873;50.102;14.434;2023-05-20T03:05:25;99905.66;;;10.32;81.14
76128;BME280;64873;50.102;14.434;2023-05-20T03:07:51;99915.78;;;10.44;80.88
76128;BME280;64873;50.102;14.434;2023-05-20T03:10:17;99914.75;;;10.38;81.35
76128;BME280;64873;50.102;14.434;2023-05-20T03:12:42;99919.41;;;10.29;81.58
76128;BME280;64873;50.102;14.434;2023-05-20T03:15:08;99921.50;;;10.34;81.55
76128;BME280;64873;50.102;14.434;2023-05-20T03:17:33;99898.84;;;10.23;81.52
76128;BME280;64873;50.102;14.434;2023-05-20T03:20:00;99911.22;;;10.37;81.54
76128;BME280;64873;50.102;14.434;2023-05-20T03:22:25;99921.28;;;10.35;81.55
76128;BME280;64873;50.102;14.434;2023-05-20T03:24:51;99912.81;;;10.25;81.37
76128;BME280;64873;50.102;14.434;2023-05-20T03:27:17;99927.38;;;10.23;81.86
76128;BME280;64873;50.102;14.434;2023-05-20T03:29:42;99929.28;;;10.29;81.93
76128;BME280;64873;50.102;14.434;2023-05-20T03:32:08;99921.84;;;10.24;82.04
76128;BME280;64873;50.102;14.434;2023-05-20T03:34:33;99928.59;;;10.20;82.17
76128;BME280;64873;50.102;14.434;2023-05-20T03:36:59;99924.75;;;10.29;81.95
76128;BME280;64873;50.102;14.434;2023-05-20T03:39:25;99907.47;;;10.25;82.21
76128;BME280;64873;50.102;14.434;2023-05-20T03:41:50;99918.50;;;10.15;82.46
76128;BME280;64873;50.102;14.434;2023-05-20T03:44:16;99925.28;;;10.18;82.29
76128;BME280;64873;50.102;14.434;2023-05-20T03:46:41;99926.41;;;10.30;81.92
76128;BME280;64873;50.102;14.434;2023-05-20T03:49:07;99925.56;;;10.30;81.90
76128;BME280;64873;50.102;14.434;2023-05-20T03:51:32;99938.31;;;10.28;81.68
76128;BME280;64873;50.102;14.434;2023-05-20T03:53:58;99936.25;;;10.30;81.99
76128;BME280;64873;50.102;14.434;2023-05-20T03:56:23;99928.84;;;10.25;81.73
76128;BME280;64873;50.102;14.434;2023-05-20T03:58:48;99936.63;;;10.20;81.90
76128;BME280;64873;50.102;14.434;2023-05-20T04:01:14;99929.72;;;10.32;81.63
76128;BME280;64873;50.102;14.434;2023-05-20T04:03:40;99928.47;;;10.28;81.62
76128;BME280;64873;50.102;14.434;2023-05-20T04:06:08;99940.34;;;10.26;81.73
76128;BME280;64873;50.102;14.434;2023-05-20T04:08:33;99925.69;;;10.15;82.13
76128;BME280;64873;50.102;14.434;2023-05-20T04:11:01;99935.84;;;10.26;81.99
76128;BME280;64873;50.102;14.434;2023-05-20T04:13:27;99935.47;;;10.36;81.68
76128;BME280;64873;50.102;14.434;2023-05-20T04:15:52;99925.56;;;10.30;81.67
76128;BME280;64873;50.102;14.434;2023-05-20T04:18:18;99924.75;;;10.29;81.34
76128;BME280;64873;50.102;14.434;2023-05-20T04:20:44;99928.03;;;10.31;81.56
76128;BME280;64873;50.102;14.434;2023-05-20T04:23:10;99928.03;;;10.31;81.69
76128;BME280;64873;50.102;14.434;2023-05-20T04:25:36;99930.53;;;10.33;81.41
76128;BME280;64873;50.102;14.434;2023-05-20T04:28:01;99927.31;;;10.44;80.89
76128;BME280;64873;50.102;14.434;2023-05-20T04:30:26;99937.19;;;10.50;80.78
76128;BME280;64873;50.102;14.434;2023-05-20T04:32:53;99932.19;;;10.40;81.35
76128;BME280;64873;50.102;14.434;2023-05-20T04:35:18;99938.41;;;10.48;81.12
76128;BME280;64873;50.102;14.434;2023-05-20T04:37:44;99929.56;;;10.54;80.95
76128;BME280;64873;50.102;14.434;2023-05-20T04:40:12;99920.13;;;10.58;80.43
76128;BME280;64873;50.102;14.434;2023-05-20T04:42:38;99917.72;;;10.70;80.25
76128;BME280;64873;50.102;14.434;2023-05-20T04:45:04;99910.50;;;10.63;79.99
76128;BME280;64873;50.102;14.434;2023-05-20T04:47:30;99914.22;;;10.76;80.22
76128;BME280;64873;50.102;14.434;2023-05-20T04:49:56;99904.78;;;10.86;79.71
76128;BME280;64873;50.102;14.434;2023-05-20T04:52:24;99916.31;;;10.93;79.18
76128;BME280;64873;50.102;14.434;2023-05-20T04:54:50;99919.22;;;10.92;79.65
76128;BME280;64873;50.102;14.434;2023-05-20T04:57:16;99916.38;;;11.20;78.58
76128;BME280;64873;50.102;14.434;2023-05-20T04:59:47;99905.03;;;11.31;78.17
76128;BME280;64873;50.102;14.434;2023-05-20T05:02:13;99913.06;;;11.31;77.86
76128;BME280;64873;50.102;14.434;2023-05-20T05:04:39;99915.53;;;11.46;77.97
76128;BME280;64873;50.102;14.434;2023-05-20T05:07:05;99912.66;;;11.47;78.11
76128;BME280;64873;50.102;14.434;2023-05-20T05:09:30;99907.72;;;11.44;77.42
76128;BME280;64873;50.102;14.434;2023-05-20T05:11:56;99919.63;;;11.75;77.00
76128;BME280;64873;50.102;14.434;2023-05-20T05:14:21;99911.41;;;11.57;77.22
76128;BME280;64873;50.102;14.434;2023-05-20T05:16:48;99908.53;;;11.38;77.89
76128;BME280;64873;50.102;14.434;2023-05-20T05:19:13;99905.66;;;11.46;77.79
76128;BME280;64873;50.102;14.434;2023-05-20T05:21:39;99918.00;;;11.47;77.63
76128;BME280;64873;50.102;14.434;2023-05-20T05:24:04;99903.19;;;11.52;77.56
76128;BME280;64873;50.102;14.434;2023-05-20T05:26:30;99914.28;;;11.48;77.70
76128;BME280;64873;50.102;14.434;2023-05-20T05:28:55;99915.72;;;11.71;76.89
76128;BME280;64873;50.102;14.434;2023-05-20T05:31:21;99912.66;;;11.67;77.01
76128;BME280;64873;50.102;14.434;2023-05-20T05:33:46;99921.69;;;11.80;76.98
76128;BME280;64873;50.102;14.434;2023-05-20T05:36:11;99901.09;;;11.73;76.60
76128;BME280;64873;50.102;14.434;2023-05-20T05:38:37;99901.50;;;11.90;76.25
76128;BME280;64873;50.102;14.434;2023-05-20T05:41:02;99902.25;;;12.11;75.67
76128;BME280;64873;50.102;14.434;2023-05-20T05:43:28;99901.41;;;12.17;75.59
76128;BME280;64873;50.102;14.434;2023-05-20T05:45:53;99886.97;;;12.18;75.35
76128;BME280;64873;50.102;14.434;2023-05-20T05:48:20;99900.50;;;12.36;75.18
76128;BME280;64873;50.102;14.434;2023-05-20T05:50:45;99904.84;;;12.44;74.62
76128;BME280;64873;50.102;14.434;2023-05-20T05:53:11;99896.81;;;12.37;74.25
76128;BME280;64873;50.102;14.434;2023-05-20T05:55:37;99899.19;;;12.59;73.46
76128;BME280;64873;50.102;14.434;2023-05-20T05:58:02;99902.66;;;12.59;73.45
76128;BME280;64873;50.102;14.434;2023-05-20T06:00:28;99906.59;;;12.63;73.37
76128;BME280;64873;50.102;14.434;2023-05-20T06:02:53;99895.91;;;12.57;73.33
76128;BME280;64873;50.102;14.434;2023-05-20T06:05:18;99896.75;;;12.50;73.98
76128;BME280;64873;50.102;14.434;2023-05-20T06:07:44;99886.72;;;12.71;73.47
76128;BME280;64873;50.102;14.434;2023-05-20T06:10:10;99896.25;;;12.67;73.67
76128;BME280;64873;50.102;14.434;2023-05-20T06:12:35;99878.34;;;12.61;73.93
76128;BME280;64873;50.102;14.434;2023-05-20T06:15:01;99893.34;;;12.68;73.98
76128;BME280;64873;50.102;14.434;2023-05-20T06:17:26;99889.38;;;12.77;73.60
76128;BME280;64873;50.102;14.434;2023-05-20T06:19:51;99895.72;;;12.83;73.23
76128;BME280;64873;50.102;14.434;2023-05-20T06:22:17;99880.56;;;13.02;72.57
76128;BME280;64873;50.102;14.434;2023-05-20T06:24:42;99881.97;;;13.04;72.75
76128;BME280;64873;50.102;14.434;2023-05-20T06:27:07;99883.38;;;13.14;72.37
76128;BME280;64873;50.102;14.434;2023-05-20T06:29:33;99878.97;;;13.19;71.92
76128;BME280;64873;50.102;14.434;2023-05-20T06:31:59;99875.97;;;13.34;71.18
76128;BME280;64873;50.102;14.434;2023-05-20T06:34:24;99880.19;;;13.23;71.69
76128;BME280;64873;50.102;14.434;2023-05-20T06:36:50;99898.16;;;13.48;70.90
76128;BME280;64873;50.102;14.434;2023-05-20T06:39:15;99887.41;;;13.73;70.04
76128;BME280;64873;50.102;14.434;2023-05-20T06:41:40;99887.94;;;13.81;69.74
76128;BME280;64873;50.102;14.434;2023-05-20T06:44:06;99884.72;;;14.09;68.36
76128;BME280;64873;50.102;14.434;2023-05-20T06:46:33;99886.94;;;14.12;68.37
76128;BME280;64873;50.102;14.434;2023-05-20T06:48:58;99889.13;;;14.22;67.99
76128;BME280;64873;50.102;14.434;2023-05-20T06:51:24;99882.16;;;14.51;67.04
76128;BME280;64873;50.102;14.434;2023-05-20T06:53:49;99873.22;;;14.21;67.79
76128;BME280;64873;50.102;14.434;2023-05-20T06:56:15;99880.25;;;14.03;68.44
76128;BME280;64873;50.102;14.434;2023-05-20T06:58:41;99891.56;;;14.24;67.42
76128;BME280;64873;50.102;14.434;2023-05-20T07:01:06;99877.59;;;14.82;66.19
76128;BME280;64873;50.102;14.434;2023-05-20T07:03:31;99874.97;;;15.17;64.72
76128;BME280;64873;50.102;14.434;2023-05-20T07:05:57;99868.22;;;14.73;65.81
76128;BME280;64873;50.102;14.434;2023-05-20T07:08:22;99862.22;;;14.71;65.96
76128;BME280;64873;50.102;14.434;2023-05-20T07:10:48;99854.31;;;14.76;66.00
76128;BME280;64873;50.102;14.434;2023-05-20T07:13:13;99866.75;;;15.00;65.91
76128;BME280;64873;50.102;14.434;2023-05-20T07:15:39;99853.50;;;14.87;65.90
76128;BME280;64873;50.102;14.434;2023-05-20T07:18:04;99856.72;;;14.96;65.41
76128;BME280;64873;50.102;14.434;2023-05-20T07:20:30;99854.13;;;15.12;65.10
76128;BME280;64873;50.102;14.434;2023-05-20T07:22:55;99841.47;;;14.89;66.02
76128;BME280;64873;50.102;14.434;2023-05-20T07:25:20;99834.03;;;15.27;64.24
76128;BME280;64873;50.102;14.434;2023-05-20T07:27:46;99842.56;;;15.47;64.01
76128;BME280;64873;50.102;14.434;2023-05-20T07:30:11;99840.94;;;15.46;63.86
76128;BME280;64873;50.102;14.434;2023-05-20T07:32:37;99833.47;;;15.25;64.68
76128;BME280;64873;50.102;14.434;2023-05-20T07:35:02;99843.88;;;15.33;64.59
76128;BME280;64873;50.102;14.434;2023-05-20T07:37:28;99846.56;;;15.80;63.39
76128;BME280;64873;50.102;14.434;2023-05-20T07:39:53;99840.31;;;16.03;61.94
76128;BME280;64873;50.102;14.434;2023-05-20T07:42:19;99843.59;;;15.93;62.65
76128;BME280;64873;50.102;14.434;2023-05-20T07:44:44;99839.97;;;15.99;62.13
76128;BME280;64873;50.102;14.434;2023-05-20T07:47:10;99841.94;;;16.04;61.58
76128;BME280;64873;50.102;14.434;2023-05-20T07:49:35;99824.66;;;16.16;61.48
76128;BME280;64873;50.102;14.434;2023-05-20T07:52:01;99830.84;;;16.29;61.36
76128;BME280;64873;50.102;14.434;2023-05-20T07:54:26;99832.47;;;16.58;60.66
76128;BME280;64873;50.102;14.434;2023-05-20T07:56:52;99827.78;;;16.37;61.21
76128;BME280;64873;50.102;14.434;2023-05-20T07:59:17;99829.59;;;16.48;60.85
76128;BME280;64873;50.102;14.434;2023-05-20T08:01:43;99818.06;;;15.95;62.34
76128;BME280;64873;50.102;14.434;2023-05-20T08:04:08;99797.91;;;16.26;61.68
76128;BME280;64873;50.102;14.434;2023-05-20T08:06:34;99810.22;;;16.79;60.50
76128;BME280;64873;50.102;14.434;2023-05-20T08:09:02;99807.94;;;17.05;59.55
76128;BME280;64873;50.102;14.434;2023-05-20T08:11:28;99803.75;;;16.81;60.35
76128;BME280;64873;50.102;14.434;2023-05-20T08:13:53;99807.28;;;16.98;59.92
76128;BME280;64873;50.102;14.434;2023-05-20T08:16:20;99802.31;;;17.07;59.62
76128;BME280;64873;50.102;14.434;2023-05-20T08:18:45;99796.94;;;17.12;59.88
76128;BME280;64873;50.102;14.434;2023-05-20T08:21:11;99797.72;;;17.24;59.39
76128;BME280;64873;50.102;14.434;2023-05-20T08:23:36;99794.06;;;17.35;59.14
76128;BME280;64873;50.102;14.434;2023-05-20T08:26:02;99788.84;;;17.28;59.12
76128;BME280;64873;50.102;14.434;2023-05-20T08:28:29;99791.78;;;17.27;59.15
76128;BME280;64873;50.102;14.434;2023-05-20T08:30:54;99788.72;;;17.18;60.19
76128;BME280;64873;50.102;14.434;2023-05-20T08:33:20;99794.66;;;17.76;58.49
76128;BME280;64873;50.102;14.434;2023-05-20T08:35:47;99794.09;;;17.96;57.80
76128;BME280;64873;50.102;14.434;2023-05-20T08:38:13;99787.06;;;17.95;57.62
76128;BME280;64873;50.102;14.434;2023-05-20T08:40:38;99783.53;;;17.72;57.66
76128;BME280;64873;50.102;14.434;2023-05-20T08:43:03;99779.59;;;17.63;58.81
76128;BME280;64873;50.102;14.434;2023-05-20T08:45:33;99783.63;;;17.61;59.10
76128;BME280;64873;50.102;14.434;2023-05-20T08:48:00;99791.06;;;18.14;58.03
76128;BME280;64873;50.102;14.434;2023-05-20T08:50:25;99781.75;;;18.05;58.09
76128;BME280;64873;50.102;14.434;2023-05-20T08:52:51;99783.69;;;18.31;57.47
76128;BME280;64873;50.102;14.434;2023-05-20T08:55:24;99765.81;;;18.30;56.78
76128;BME280;64873;50.102;14.434;2023-05-20T08:57:51;99765.03;;;18.08;57.63
76128;BME280;64873;50.102;14.434;2023-05-20T09:00:19;99776.84;;;18.02;58.17
76128;BME280;64873;50.102;14.434;2023-05-20T09:02:46;99757.97;;;18.61;56.83
76128;BME280;64873;50.102;14.434;2023-05-20T09:05:12;99768.28;;;18.10;57.63
76128;BME280;64873;50.102;14.434;2023-05-20T09:07:38;99756.56;;;18.26;57.11
76128;BME280;64873;50.102;14.434;2023-05-20T09:10:04;99767.06;;;18.50;56.92
76128;BME280;64873;50.102;14.434;2023-05-20T09:12:30;99766.09;;;18.61;56.48
76128;BME280;64873;50.102;14.434;2023-05-20T09:14:55;99765.13;;;18.72;55.86
76128;BME280;64873;50.102;14.434;2023-05-20T09:17:22;99765.22;;;18.55;56.77
76128;BME280;64873;50.102;14.434;2023-05-20T09:19:52;99761.50;;;18.61;56.72
76128;BME280;64873;50.102;14.434;2023-05-20T09:22:24;99752.91;;;19.02;56.10
76128;BME280;64873;50.102;14.434;2023-05-20T09:24:50;99755.63;;;19.02;56.04
76128;BME280;64873;50.102;14.434;2023-05-20T09:27:16;99764.88;;;19.06;56.05
76128;BME280;64873;50.102;14.434;2023-05-20T09:29:42;99758.97;;;19.19;55.40
76128;BME280;64873;50.102;14.434;2023-05-20T09:32:09;99764.50;;;19.39;54.91
76128;BME280;64873;50.102;14.434;2023-05-20T09:34:36;99761.31;;;19.48;55.18
76128;BME280;64873;50.102;14.434;2023-05-20T09:37:01;99763.13;;;19.84;54.18
76128;BME280;64873;50.102;14.434;2023-05-20T09:39:29;99750.28;;;19.59;54.62
76128;BME280;64873;50.102;14.434;2023-05-20T09:42:11;99747.16;;;19.40;55.25
76128;BME280;64873;50.102;14.434;2023-05-20T09:44:40;99755.50;;;19.71;54.68
76128;BME280;64873;50.102;14.434;2023-05-20T09:47:06;99743.03;;;19.70;54.99
76128;BME280;64873;50.102;14.434;2023-05-20T09:49:34;99737.13;;;19.88;54.23
76128;BME280;64873;50.102;14.434;2023-05-20T09:52:02;99745.81;;;19.95;54.14
76128;BME280;64873;50.102;14.434;2023-05-20T09:54:28;99745.28;;;19.98;54.39
76128;BME280;64873;50.102;14.434;2023-05-20T09:56:57;99734.88;;;19.65;55.24
76128;BME280;64873;50.102;14.434;2023-05-20T09:59:23;99736.00;;;19.84;54.61
76128;BME280;64873;50.102;14.434;2023-05-20T10:01:49;99736.56;;;19.86;54.81
76128;BME280;64873;50.102;14.434;2023-05-20T10:04:16;99715.41;;;19.83;54.53
76128;BME280;64873;50.102;14.434;2023-05-20T10:12:21;99720.94;;;20.29;54.10
76128;BME280;64873;50.102;14.434;2023-05-20T10:15:14;99715.22;;;20.31;54.05
76128;BME280;64873;50.102;14.434;2023-05-20T10:17:56;99715.53;;;20.55;53.52
76128;BME280;64873;50.102;14.434;2023-05-20T10:20:26;99713.06;;;20.43;53.63
76128;BME280;64873;50.102;14.434;2023-05-20T10:22:55;99713.09;;;20.53;53.70
76128;BME280;64873;50.102;14.434;2023-05-20T10:25:28;99707.13;;;20.61;53.09
76128;BME280;64873;50.102;14.434;2023-05-20T10:28:03;99709.84;;;20.76;52.50
76128;BME280;64873;50.102;14.434;2023-05-20T10:30:29;99699.78;;;20.67;52.57
76128;BME280;64873;50.102;14.434;2023-05-20T10:32:57;99700.88;;;20.76;52.83
76128;BME280;64873;50.102;14.434;2023-05-20T10:35:25;99700.31;;;20.84;52.54
76128;BME280;64873;50.102;14.434;2023-05-20T10:37:53;99681.88;;;20.71;53.32
76128;BME280;64873;50.102;14.434;2023-05-20T10:40:20;99687.53;;;20.74;52.97
76128;BME280;64873;50.102;14.434;2023-05-20T10:42:47;99682.69;;;20.76;53.12
76128;BME280;64873;50.102;14.434;2023-05-20T10:45:33;99686.19;;;20.87;52.97
76128;BME280;64873;50.102;14.434;2023-05-20T10:48:01;99682.94;;;20.75;52.95
76128;BME280;64873;50.102;14.434;2023-05-20T10:50:34;99680.78;;;20.52;53.71
76128;BME280;64873;50.102;14.434;2023-05-20T10:53:11;99680.72;;;20.97;52.90
76128;BME280;64873;50.102;14.434;2023-05-20T10:55:38;99664.94;;;21.04;53.17
76128;BME280;64873;50.102;14.434;2023-05-20T10:58:04;99662.19;;;21.15;52.16
76128;BME280;64873;50.102;14.434;2023-05-20T11:00:36;99654.63;;;21.12;52.58
76128;BME280;64873;50.102;14.434;2023-05-20T11:03:03;99652.09;;;21.25;52.21
76128;BME280;64873;50.102;14.434;2023-05-20T11:05:30;99661.31;;;21.40;51.51
76128;BME280;64873;50.102;14.434;2023-05-20T11:08:03;99648.28;;;21.42;51.84
76128;BME280;64873;50.102;14.434;2023-05-20T11:10:29;99651.78;;;21.47;51.86
76128;BME280;64873;50.102;14.434;2023-05-20T11:12:56;99643.13;;;21.35;51.98
76128;BME280;64873;50.102;14.434;2023-05-20T11:15:22;99647.38;;;21.51;51.99
76128;BME280;64873;50.102;14.434;2023-05-20T11:17:54;99636.22;;;21.58;51.89
76128;BME280;64873;50.102;14.434;2023-05-20T11:20:23;99635.97;;;21.54;51.70
76128;BME280;64873;50.102;14.434;2023-05-20T11:22:50;99638.59;;;21.70;51.84
76128;BME280;64873;50.102;14.434;2023-05-20T11:25:16;99628.78;;;21.74;50.71
76128;BME280;64873;50.102;14.434;2023-05-20T11:27:42;99646.78;;;21.70;50.52
76128;BME280;64873;50.102;14.434;2023-05-20T11:30:08;99624.22;;;21.64;51.22
76128;BME280;64873;50.102;14.434;2023-05-20T11:32:35;99635.47;;;21.47;51.72
76128;BME280;64873;50.102;14.434;2023-05-20T11:35:01;99630.53;;;21.54;51.95
76128;BME280;64873;50.102;14.434;2023-05-20T11:37:26;99628.69;;;21.40;51.72
76128;BME280;64873;50.102;14.434;2023-05-20T11:40:05;99621.19;;;21.71;51.76
76128;BME280;64873;50.102;14.434;2023-05-20T11:42:35;99610.75;;;21.88;51.13
76128;BME280;64873;50.102;14.434;2023-05-20T11:45:01;99619.31;;;22.11;50.57
76128;BME280;64873;50.102;14.434;2023-05-20T11:47:27;99608.66;;;22.09;50.72
76128;BME280;64873;50.102;14.434;2023-05-20T11:49:52;99606.63;;;22.30;50.00
76128;BME280;64873;50.102;14.434;2023-05-20T11:52:18;99602.09;;;22.15;50.73
76128;BME280;64873;50.102;14.434;2023-05-20T11:54:43;99593.72;;;22.41;50.33
76128;BME280;64873;50.102;14.434;2023-05-20T11:57:12;99603.97;;;22.78;49.45
76128;BME280;64873;50.102;14.434;2023-05-20T11:59:37;99605.59;;;22.79;48.93
76128;BME280;64873;50.102;14.434;2023-05-20T12:02:03;99591.66;;;22.56;49.25
76128;BME280;64873;50.102;14.434;2023-05-20T12:04:29;99596.84;;;22.29;49.53
76128;BME280;64873;50.102;14.434;2023-05-20T12:06:54;99597.31;;;22.36;49.78
76128;BME280;64873;50.102;14.434;2023-05-20T12:09:20;99593.22;;;22.33;49.96
76128;BME280;64873;50.102;14.434;2023-05-20T12:11:46;99584.03;;;22.29;50.56
76128;BME280;64873;50.102;14.434;2023-05-20T12:14:11;99582.03;;;22.40;49.96
76128;BME280;64873;50.102;14.434;2023-05-20T12:16:37;99582.56;;;22.66;49.16
76128;BME280;64873;50.102;14.434;2023-05-20T12:19:02;99586.97;;;22.33;50.06
76128;BME280;64873;50.102;14.434;2023-05-20T12:21:28;99591.53;;;22.43;49.93
76128;BME280;64873;50.102;14.434;2023-05-20T12:23:54;99589.59;;;22.43;50.13
76128;BME280;64873;50.102;14.434;2023-05-20T12:26:27;99584.41;;;22.18;50.41
76128;BME280;64873;50.102;14.434;2023-05-20T12:28:53;99581.88;;;22.26;50.46
76128;BME280;64873;50.102;14.434;2023-05-20T12:31:19;99595.09;;;22.38;49.95
76128;BME280;64873;50.102;14.434;2023-05-20T12:33:45;99598.38;;;22.40;49.88
76128;BME280;64873;50.102;14.434;2023-05-20T12:36:11;99596.28;;;22.27;50.37
76128;BME280;64873;50.102;14.434;2023-05-20T12:38:37;99585.34;;;22.32;49.86
76128;BME280;64873;50.102;14.434;2023-05-20T12:41:02;99576.75;;;22.20;50.82
76128;BME280;64873;50.102;14.434;2023-05-20T12:43:28;99575.75;;;22.40;50.46
76128;BME280;64873;50.102;14.434;2023-05-20T12:45:53;99572.03;;;22.59;49.68
76128;BME280;64873;50.102;14.434;2023-05-20T12:48:19;99582.88;;;22.65;48.99
76128;BME280;64873;50.102;14.434;2023-05-20T12:50:44;99578.50;;;22.93;48.52
76128;BME280;64873;50.102;14.434;2023-05-20T12:53:10;99586.09;;;22.67;48.63